Anahola, Hawaii
Current Conditions -  °F | °C
As of 3:08 AM on Thursday 23 Oct 2014 (Local Time) from PHLI Reporting Station
Light Rain Light Rain  
Wind Chill: 25°   Ceiling: 4200
Heat Index: 26°   Visibility: 7mi
Dew Point: 22°   Wind: 9mph
Humidity: 83%   Direction: 140°SE
Pressure: 29.99"   Gusts: NA
Location:  22.14°N, 159.31°W
Report Text: PHLI 231308Z 14008KT 7SM -RA FEW029 OVC042 25/22 A2999 RMK AO2 RAB03 P0000 $
Loading
Personal Weather Stations






























Interactive Weather Map
Tropical Storm Tracking
New forecast layout! Learn more

10-Day Weather Forecast

Advertisements
Track Severe Weather on mobile